sensor_id;sensor_type;location;lat;lon;timestamp;pressure;altitude;pressure_sealevel;temperature;humidity
61359;BME280;47228;46.762;23.598;2023-01-29T00:00:12;97484.16;;;-0.08;86.81
61359;BME280;47228;46.762;23.598;2023-01-29T00:03:00;97491.88;;;-0.09;86.31
61359;BME280;47228;46.762;23.598;2023-01-29T00:05:28;97492.09;;;-0.12;86.20
61359;BME280;47228;46.762;23.598;2023-01-29T00:07:56;97492.80;;;-0.12;86.24
61359;BME280;47228;46.762;23.598;2023-01-29T00:10:25;97498.63;;;-0.13;86.09
61359;BME280;47228;46.762;23.598;2023-01-29T00:12:53;97498.95;;;-0.13;86.18
61359;BME280;47228;46.762;23.598;2023-01-29T00:15:22;97501.55;;;-0.12;86.14
61359;BME280;47228;46.762;23.598;2023-01-29T00:17:50;97504.04;;;-0.17;85.63
61359;BME280;47228;46.762;23.598;2023-01-29T00:20:18;97504.18;;;-0.21;85.70
61359;BME280;47228;46.762;23.598;2023-01-29T00:22:46;97504.73;;;-0.21;85.95
61359;BME280;47228;46.762;23.598;2023-01-29T00:25:14;97505.89;;;-0.19;86.05
61359;BME280;47228;46.762;23.598;2023-01-29T00:27:42;97500.79;;;-0.16;85.73
61359;BME280;47228;46.762;23.598;2023-01-29T00:30:11;97500.97;;;-0.16;85.57
61359;BME280;47228;46.762;23.598;2023-01-29T00:32:40;97503.93;;;-0.14;85.79
61359;BME280;47228;46.762;23.598;2023-01-29T00:35:08;97508.11;;;-0.12;85.80
61359;BME280;47228;46.762;23.598;2023-01-29T00:37:36;97506.99;;;-0.11;85.79
61359;BME280;47228;46.762;23.598;2023-01-29T00:40:05;97511.56;;;-0.11;85.77
61359;BME280;47228;46.762;23.598;2023-01-29T00:42:33;97508.27;;;-0.11;85.88
61359;BME280;47228;46.762;23.598;2023-01-29T00:45:19;97506.43;;;-0.10;85.57
61359;BME280;47228;46.762;23.598;2023-01-29T00:47:48;97507.69;;;-0.13;85.30
61359;BME280;47228;46.762;23.598;2023-01-29T00:50:16;97504.96;;;-0.16;85.43
61359;BME280;47228;46.762;23.598;2023-01-29T00:52:44;97501.90;;;-0.15;85.80
61359;BME280;47228;46.762;23.598;2023-01-29T00:55:12;97498.05;;;-0.12;85.90
61359;BME280;47228;46.762;23.598;2023-01-29T00:57:40;97504.31;;;-0.16;85.38
61359;BME280;47228;46.762;23.598;2023-01-29T01:00:12;97507.42;;;-0.20;85.30
61359;BME280;47228;46.762;23.598;2023-01-29T01:02:41;97508.80;;;-0.24;85.37
61359;BME280;47228;46.762;23.598;2023-01-29T01:05:28;97506.83;;;-0.25;85.69
61359;BME280;47228;46.762;23.598;2023-01-29T01:07:57;97508.45;;;-0.24;85.96
61359;BME280;47228;46.762;23.598;2023-01-29T01:10:28;97505.15;;;-0.24;85.85
61359;BME280;47228;46.762;23.598;2023-01-29T01:13:02;97504.80;;;-0.24;85.92
61359;BME280;47228;46.762;23.598;2023-01-29T01:15:34;97506.22;;;-0.20;86.05
61359;BME280;47228;46.762;23.598;2023-01-29T01:18:03;97499.40;;;-0.20;85.82
61359;BME280;47228;46.762;23.598;2023-01-29T01:20:33;97499.80;;;-0.19;86.01
61359;BME280;47228;46.762;23.598;2023-01-29T01:23:01;97495.93;;;-0.16;86.08
61359;BME280;47228;46.762;23.598;2023-01-29T01:25:30;97498.24;;;-0.12;86.14
61359;BME280;47228;46.762;23.598;2023-01-29T01:27:58;97500.37;;;-0.11;86.01
61359;BME280;47228;46.762;23.598;2023-01-29T01:30:25;97497.90;;;-0.08;85.98
61359;BME280;47228;46.762;23.598;2023-01-29T01:32:53;97494.98;;;-0.07;85.61
61359;BME280;47228;46.762;23.598;2023-01-29T01:35:21;97491.46;;;-0.06;85.45
61359;BME280;47228;46.762;23.598;2023-01-29T01:37:49;97488.61;;;-0.08;85.63
61359;BME280;47228;46.762;23.598;2023-01-29T01:40:19;97485.07;;;-0.09;85.64
61359;BME280;47228;46.762;23.598;2023-01-29T01:42:50;97485.17;;;-0.10;85.46
61359;BME280;47228;46.762;23.598;2023-01-29T01:45:22;97485.45;;;-0.11;85.52
61359;BME280;47228;46.762;23.598;2023-01-29T01:50:28;97486.18;;;-0.12;85.76
61359;BME280;47228;46.762;23.598;2023-01-29T01:53:09;97491.23;;;-0.10;85.99
61359;BME280;47228;46.762;23.598;2023-01-29T01:55:51;97492.29;;;-0.08;85.96
61359;BME280;47228;46.762;23.598;2023-01-29T01:58:51;97492.52;;;-0.07;85.74
61359;BME280;47228;46.762;23.598;2023-01-29T02:01:21;97488.92;;;-0.05;85.79
61359;BME280;47228;46.762;23.598;2023-01-29T02:04:01;97494.00;;;-0.03;85.82
61359;BME280;47228;46.762;23.598;2023-01-29T02:06:51;97496.86;;;-0.03;85.57
61359;BME280;47228;46.762;23.598;2023-01-29T02:09:43;97497.98;;;-0.01;85.73
61359;BME280;47228;46.762;23.598;2023-01-29T02:12:15;97498.28;;;-0.03;85.34
61359;BME280;47228;46.762;23.598;2023-01-29T02:14:43;97495.80;;;-0.06;85.23
61359;BME280;47228;46.762;23.598;2023-01-29T02:17:16;97495.27;;;-0.08;85.15
61359;BME280;47228;46.762;23.598;2023-01-29T02:20:10;97494.19;;;-0.07;85.25
61359;BME280;47228;46.762;23.598;2023-01-29T02:26:08;97497.24;;;-0.05;85.18
61359;BME280;47228;46.762;23.598;2023-01-29T02:29:01;97500.42;;;-0.03;85.39
61359;BME280;47228;46.762;23.598;2023-01-29T02:31:57;97501.85;;;-0.02;85.47
61359;BME280;47228;46.762;23.598;2023-01-29T02:34:46;97502.61;;;-0.00;85.58
61359;BME280;47228;46.762;23.598;2023-01-29T02:40:44;97501.44;;;0.03;85.26
61359;BME280;47228;46.762;23.598;2023-01-29T02:43:44;97505.84;;;0.07;85.11
61359;BME280;47228;46.762;23.598;2023-01-29T02:46:36;97508.00;;;0.08;84.94
61359;BME280;47228;46.762;23.598;2023-01-29T02:51:50;97519.61;;;0.10;84.85
61359;BME280;47228;46.762;23.598;2023-01-29T02:56:57;97529.42;;;0.04;84.48
61359;BME280;47228;46.762;23.598;2023-01-29T02:59:33;97536.07;;;0.02;84.55
61359;BME280;47228;46.762;23.598;2023-01-29T03:02:12;97541.27;;;-0.00;84.22
61359;BME280;47228;46.762;23.598;2023-01-29T03:04:50;97543.12;;;-0.04;84.02
61359;BME280;47228;46.762;23.598;2023-01-29T03:07:31;97546.29;;;-0.08;83.86
61359;BME280;47228;46.762;23.598;2023-01-29T03:10:31;97549.85;;;-0.11;83.90
61359;BME280;47228;46.762;23.598;2023-01-29T03:13:11;97548.81;;;-0.16;84.12
61359;BME280;47228;46.762;23.598;2023-01-29T03:15:44;97550.69;;;-0.19;84.20
61359;BME280;47228;46.762;23.598;2023-01-29T03:18:18;97553.41;;;-0.23;84.12
61359;BME280;47228;46.762;23.598;2023-01-29T03:20:55;97561.13;;;-0.25;84.15
61359;BME280;47228;46.762;23.598;2023-01-29T03:23:28;97564.23;;;-0.30;83.76
61359;BME280;47228;46.762;23.598;2023-01-29T03:26:15;97561.45;;;-0.33;83.65
61359;BME280;47228;46.762;23.598;2023-01-29T03:29:04;97556.61;;;-0.36;83.87
61359;BME280;47228;46.762;23.598;2023-01-29T03:31:54;97558.45;;;-0.40;83.66
61359;BME280;47228;46.762;23.598;2023-01-29T03:34:45;97559.58;;;-0.47;83.18
61359;BME280;47228;46.762;23.598;2023-01-29T03:37:31;97555.86;;;-0.55;83.21
61359;BME280;47228;46.762;23.598;2023-01-29T03:40:03;97559.15;;;-0.63;83.41
61359;BME280;47228;46.762;23.598;2023-01-29T03:50:53;97577.08;;;-0.89;84.26
61359;BME280;47228;46.762;23.598;2023-01-29T03:53:31;97576.24;;;-0.92;84.24
61359;BME280;47228;46.762;23.598;2023-01-29T03:56:07;97576.24;;;-0.98;84.36
61359;BME280;47228;46.762;23.598;2023-01-29T03:58:41;97577.46;;;-1.02;84.64
61359;BME280;47228;46.762;23.598;2023-01-29T04:01:20;97575.92;;;-1.03;84.75
61359;BME280;47228;46.762;23.598;2023-01-29T04:04:23;97572.75;;;-1.05;84.78
61359;BME280;47228;46.762;23.598;2023-01-29T04:06:56;97575.29;;;-1.06;85.16
61359;BME280;47228;46.762;23.598;2023-01-29T04:09:31;97576.90;;;-1.04;85.28
61359;BME280;47228;46.762;23.598;2023-01-29T04:12:09;97578.26;;;-1.00;85.46
61359;BME280;47228;46.762;23.598;2023-01-29T04:14:38;97577.44;;;-0.94;85.28
61359;BME280;47228;46.762;23.598;2023-01-29T04:17:20;97579.56;;;-0.90;85.13
61359;BME280;47228;46.762;23.598;2023-01-29T04:19:49;97581.75;;;-0.91;84.68
61359;BME280;47228;46.762;23.598;2023-01-29T04:22:21;97582.27;;;-0.96;84.72
61359;BME280;47228;46.762;23.598;2023-01-29T04:24:51;97582.02;;;-0.99;84.74
61359;BME280;47228;46.762;23.598;2023-01-29T04:27:28;97578.04;;;-0.99;84.77
61359;BME280;47228;46.762;23.598;2023-01-29T04:30:16;97575.12;;;-0.97;84.79
61359;BME280;47228;46.762;23.598;2023-01-29T04:33:00;97569.17;;;-0.97;84.50
61359;BME280;47228;46.762;23.598;2023-01-29T04:35:41;97569.29;;;-0.96;84.50
61359;BME280;47228;46.762;23.598;2023-01-29T04:41:31;97566.95;;;-0.93;84.51
61359;BME280;47228;46.762;23.598;2023-01-29T04:47:12;97568.60;;;-0.92;84.55
61359;BME280;47228;46.762;23.598;2023-01-29T04:50:06;97574.73;;;-0.88;84.73
61359;BME280;47228;46.762;23.598;2023-01-29T05:00:26;97579.36;;;-0.96;83.69
61359;BME280;47228;46.762;23.598;2023-01-29T05:02:55;97580.70;;;-0.99;83.61
61359;BME280;47228;46.762;23.598;2023-01-29T05:05:23;97581.52;;;-1.01;83.88
61359;BME280;47228;46.762;23.598;2023-01-29T05:07:52;97586.65;;;-1.02;83.85
61359;BME280;47228;46.762;23.598;2023-01-29T05:10:21;97592.90;;;-1.05;83.85
61359;BME280;47228;46.762;23.598;2023-01-29T05:12:57;97596.45;;;-1.03;84.10
61359;BME280;47228;46.762;23.598;2023-01-29T05:15:32;97598.92;;;-1.03;83.72
61359;BME280;47228;46.762;23.598;2023-01-29T05:18:03;97607.02;;;-1.05;83.41
61359;BME280;47228;46.762;23.598;2023-01-29T05:20:37;97611.70;;;-1.09;83.31
61359;BME280;47228;46.762;23.598;2023-01-29T05:23:24;97612.92;;;-1.11;83.78
61359;BME280;47228;46.762;23.598;2023-01-29T05:25:52;97612.69;;;-1.10;83.92
61359;BME280;47228;46.762;23.598;2023-01-29T05:28:20;97616.23;;;-1.09;83.59
61359;BME280;47228;46.762;23.598;2023-01-29T05:30:51;97618.70;;;-1.10;83.31
61359;BME280;47228;46.762;23.598;2023-01-29T05:33:25;97618.46;;;-1.11;83.22
61359;BME280;47228;46.762;23.598;2023-01-29T05:35:53;97620.48;;;-1.13;83.31
61359;BME280;47228;46.762;23.598;2023-01-29T05:38:22;97620.73;;;-1.14;82.83
61359;BME280;47228;46.762;23.598;2023-01-29T05:40:50;97625.11;;;-1.16;82.64
61359;BME280;47228;46.762;23.598;2023-01-29T05:43:20;97625.41;;;-1.20;82.38
61359;BME280;47228;46.762;23.598;2023-01-29T05:45:56;97627.05;;;-1.23;82.63
61359;BME280;47228;46.762;23.598;2023-01-29T05:48:27;97622.71;;;-1.28;82.42
61359;BME280;47228;46.762;23.598;2023-01-29T05:51:02;97626.14;;;-1.32;82.68
61359;BME280;47228;46.762;23.598;2023-01-29T05:53:31;97630.31;;;-1.32;82.87
61359;BME280;47228;46.762;23.598;2023-01-29T05:56:01;97632.26;;;-1.27;83.15
61359;BME280;47228;46.762;23.598;2023-01-29T05:58:30;97635.69;;;-1.23;83.42
61359;BME280;47228;46.762;23.598;2023-01-29T06:01:16;97638.42;;;-1.18;83.62
61359;BME280;47228;46.762;23.598;2023-01-29T06:03:45;97634.05;;;-1.15;83.31
61359;BME280;47228;46.762;23.598;2023-01-29T06:06:14;97638.45;;;-1.16;82.87
61359;BME280;47228;46.762;23.598;2023-01-29T06:08:42;97641.61;;;-1.16;82.95
61359;BME280;47228;46.762;23.598;2023-01-29T06:11:13;97644.02;;;-1.15;82.90
61359;BME280;47228;46.762;23.598;2023-01-29T06:13:41;97648.15;;;-1.13;82.78
61359;BME280;47228;46.762;23.598;2023-01-29T06:16:10;97651.92;;;-1.10;82.79
61359;BME280;47228;46.762;23.598;2023-01-29T06:18:40;97653.22;;;-1.07;82.75
61359;BME280;47228;46.762;23.598;2023-01-29T06:21:10;97654.34;;;-1.05;82.52
61359;BME280;47228;46.762;23.598;2023-01-29T06:23:39;97657.55;;;-1.05;82.62
61359;BME280;47228;46.762;23.598;2023-01-29T06:26:09;97657.22;;;-1.02;82.69
61359;BME280;47228;46.762;23.598;2023-01-29T06:28:38;97660.69;;;-1.02;82.41
61359;BME280;47228;46.762;23.598;2023-01-29T06:31:07;97663.61;;;-1.04;81.88
61359;BME280;47228;46.762;23.598;2023-01-29T06:33:53;97665.61;;;-1.07;81.71
61359;BME280;47228;46.762;23.598;2023-01-29T06:36:21;97663.66;;;-1.07;81.85
61359;BME280;47228;46.762;23.598;2023-01-29T06:38:49;97663.48;;;-1.05;81.96
61359;BME280;47228;46.762;23.598;2023-01-29T06:41:18;97661.45;;;-1.03;82.00
61359;BME280;47228;46.762;23.598;2023-01-29T06:43:50;97665.79;;;-1.03;81.64
61359;BME280;47228;46.762;23.598;2023-01-29T06:46:18;97668.16;;;-1.04;81.59
61359;BME280;47228;46.762;23.598;2023-01-29T06:48:46;97665.80;;;-1.05;81.66
61359;BME280;47228;46.762;23.598;2023-01-29T06:51:14;97666.17;;;-1.06;81.62
61359;BME280;47228;46.762;23.598;2023-01-29T06:53:42;97665.94;;;-1.07;81.27
61359;BME280;47228;46.762;23.598;2023-01-29T06:56:12;97666.98;;;-1.07;81.41
61359;BME280;47228;46.762;23.598;2023-01-29T06:58:40;97669.39;;;-1.05;81.52
61359;BME280;47228;46.762;23.598;2023-01-29T07:01:11;97676.67;;;-1.02;81.20
61359;BME280;47228;46.762;23.598;2023-01-29T07:03:55;97673.84;;;-1.01;81.18
61359;BME280;47228;46.762;23.598;2023-01-29T07:06:30;97671.33;;;-1.03;80.73
61359;BME280;47228;46.762;23.598;2023-01-29T07:08:58;97666.92;;;-1.06;80.70
61359;BME280;47228;46.762;23.598;2023-01-29T07:11:26;97664.48;;;-1.15;80.06
61359;BME280;47228;46.762;23.598;2023-01-29T07:13:54;97666.13;;;-1.21;80.45
61359;BME280;47228;46.762;23.598;2023-01-29T07:16:21;97663.10;;;-1.24;80.44
61359;BME280;47228;46.762;23.598;2023-01-29T07:18:50;97659.61;;;-1.28;80.62
61359;BME280;47228;46.762;23.598;2023-01-29T07:21:20;97653.75;;;-1.31;80.83
61359;BME280;47228;46.762;23.598;2023-01-29T07:23:48;97652.04;;;-1.32;81.02
61359;BME280;47228;46.762;23.598;2023-01-29T07:26:16;97649.22;;;-1.31;81.21
61359;BME280;47228;46.762;23.598;2023-01-29T07:28:44;97648.34;;;-1.29;81.39
61359;BME280;47228;46.762;23.598;2023-01-29T07:31:12;97651.77;;;-1.24;81.57
61359;BME280;47228;46.762;23.598;2023-01-29T07:33:42;97657.73;;;-1.20;81.20
61359;BME280;47228;46.762;23.598;2023-01-29T07:36:12;97660.38;;;-1.18;80.95
61359;BME280;47228;46.762;23.598;2023-01-29T07:38:40;97661.63;;;-1.19;80.87
61359;BME280;47228;46.762;23.598;2023-01-29T07:41:10;97663.31;;;-1.20;80.98
61359;BME280;47228;46.762;23.598;2023-01-29T07:43:38;97668.49;;;-1.20;80.99
61359;BME280;47228;46.762;23.598;2023-01-29T07:46:06;97672.46;;;-1.21;80.13
61359;BME280;47228;46.762;23.598;2023-01-29T07:48:34;97671.14;;;-1.25;80.04
61359;BME280;47228;46.762;23.598;2023-01-29T07:51:02;97671.18;;;-1.25;80.48
61359;BME280;47228;46.762;23.598;2023-01-29T07:53:31;97677.58;;;-1.23;80.67
61359;BME280;47228;46.762;23.598;2023-01-29T07:55:59;97672.38;;;-1.21;80.58
61359;BME280;47228;46.762;23.598;2023-01-29T07:58:27;97670.35;;;-1.21;80.32
61359;BME280;47228;46.762;23.598;2023-01-29T08:00:55;97665.04;;;-1.22;80.26
61359;BME280;47228;46.762;23.598;2023-01-29T08:03:23;97665.48;;;-1.21;80.31
61359;BME280;47228;46.762;23.598;2023-01-29T08:05:51;97668.29;;;-1.21;80.05
61359;BME280;47228;46.762;23.598;2023-01-29T08:08:19;97665.13;;;-1.21;80.12
61359;BME280;47228;46.762;23.598;2023-01-29T08:10:47;97663.28;;;-1.20;80.15
61359;BME280;47228;46.762;23.598;2023-01-29T08:13:15;97665.70;;;-1.18;80.36
61359;BME280;47228;46.762;23.598;2023-01-29T08:15:43;97668.65;;;-1.15;80.38
61359;BME280;47228;46.762;23.598;2023-01-29T08:18:13;97670.98;;;-1.13;80.14
61359;BME280;47228;46.762;23.598;2023-01-29T08:20:41;97672.89;;;-1.09;80.06
61359;BME280;47228;46.762;23.598;2023-01-29T08:23:12;97675.40;;;-1.08;79.19
61359;BME280;47228;46.762;23.598;2023-01-29T08:25:41;97676.62;;;-1.08;79.19
61359;BME280;47228;46.762;23.598;2023-01-29T08:28:09;97680.18;;;-1.07;79.17
61359;BME280;47228;46.762;23.598;2023-01-29T08:30:38;97686.32;;;-1.05;79.39
61359;BME280;47228;46.762;23.598;2023-01-29T08:33:07;97689.86;;;-1.03;79.16
61359;BME280;47228;46.762;23.598;2023-01-29T08:35:35;97690.10;;;-1.02;79.03
61359;BME280;47228;46.762;23.598;2023-01-29T08:38:04;97688.81;;;-1.02;78.90
61359;BME280;47228;46.762;23.598;2023-01-29T08:40:33;97693.05;;;-1.00;78.63
61359;BME280;47228;46.762;23.598;2023-01-29T08:43:04;97693.77;;;-1.00;78.20
61359;BME280;47228;46.762;23.598;2023-01-29T08:45:40;97695.43;;;-1.00;78.23
61359;BME280;47228;46.762;23.598;2023-01-29T08:48:09;97695.27;;;-0.97;78.44
61359;BME280;47228;46.762;23.598;2023-01-29T08:50:37;97695.23;;;-0.93;78.98
61359;BME280;47228;46.762;23.598;2023-01-29T08:53:07;97698.58;;;-0.87;79.17
61359;BME280;47228;46.762;23.598;2023-01-29T08:55:39;97702.56;;;-0.82;79.05
61359;BME280;47228;46.762;23.598;2023-01-29T08:58:10;97703.32;;;-0.74;79.33
61359;BME280;47228;46.762;23.598;2023-01-29T09:00:38;97706.04;;;-0.67;79.07
61359;BME280;47228;46.762;23.598;2023-01-29T09:03:06;97706.33;;;-0.59;78.93
61359;BME280;47228;46.762;23.598;2023-01-29T09:05:36;97704.54;;;-0.54;78.60
61359;BME280;47228;46.762;23.598;2023-01-29T09:08:05;97703.55;;;-0.50;78.04
61359;BME280;47228;46.762;23.598;2023-01-29T09:10:34;97703.88;;;-0.50;77.75
61359;BME280;47228;46.762;23.598;2023-01-29T09:13:03;97704.31;;;-0.51;77.47
61359;BME280;47228;46.762;23.598;2023-01-29T09:15:31;97705.67;;;-0.51;77.64
61359;BME280;47228;46.762;23.598;2023-01-29T09:18:02;97701.83;;;-0.48;77.77
61359;BME280;47228;46.762;23.598;2023-01-29T09:20:31;97704.55;;;-0.45;77.85
61359;BME280;47228;46.762;23.598;2023-01-29T09:23:04;97704.43;;;-0.42;77.72
61359;BME280;47228;46.762;23.598;2023-01-29T09:25:32;97705.26;;;-0.37;77.66
61359;BME280;47228;46.762;23.598;2023-01-29T09:28:00;97703.64;;;-0.32;77.40
61359;BME280;47228;46.762;23.598;2023-01-29T09:30:28;97704.88;;;-0.30;77.02
61359;BME280;47228;46.762;23.598;2023-01-29T09:32:59;97702.16;;;-0.29;77.19
61359;BME280;47228;46.762;23.598;2023-01-29T09:35:27;97699.04;;;-0.24;77.25
61359;BME280;47228;46.762;23.598;2023-01-29T09:37:55;97699.95;;;-0.20;77.09
61359;BME280;47228;46.762;23.598;2023-01-29T09:43:19;97694.95;;;-0.23;76.23
61359;BME280;47228;46.762;23.598;2023-01-29T09:45:56;97686.56;;;-0.27;76.01
61359;BME280;47228;46.762;23.598;2023-01-29T09:48:29;97679.50;;;-0.32;75.73
61359;BME280;47228;46.762;23.598;2023-01-29T09:51:04;97679.33;;;-0.36;75.87
61359;BME280;47228;46.762;23.598;2023-01-29T09:53:39;97671.26;;;-0.38;75.97
61359;BME280;47228;46.762;23.598;2023-01-29T09:56:23;97663.77;;;-0.38;75.85
61359;BME280;47228;46.762;23.598;2023-01-29T09:58:58;97665.66;;;-0.38;76.00
61359;BME280;47228;46.762;23.598;2023-01-29T10:01:40;97666.15;;;-0.40;75.64
61359;BME280;47228;46.762;23.598;2023-01-29T10:07:15;97667.84;;;-0.39;76.26
61359;BME280;47228;46.762;23.598;2023-01-29T10:09:49;97661.59;;;-0.33;76.76
61359;BME280;47228;46.762;23.598;2023-01-29T10:12:50;97662.86;;;-0.29;76.08
61359;BME280;47228;46.762;23.598;2023-01-29T10:25:44;97663.73;;;-0.22;76.27
61359;BME280;47228;46.762;23.598;2023-01-29T10:28:19;97663.98;;;-0.19;76.20
61359;BME280;47228;46.762;23.598;2023-01-29T10:30:54;97666.48;;;-0.16;76.12
61359;BME280;47228;46.762;23.598;2023-01-29T10:33:38;97673.20;;;-0.15;75.76
61359;BME280;47228;46.762;23.598;2023-01-29T10:36:47;97677.61;;;-0.16;75.83
61359;BME280;47228;46.762;23.598;2023-01-29T10:39:18;97681.90;;;-0.10;76.50
61359;BME280;47228;46.762;23.598;2023-01-29T10:42:24;97683.80;;;-0.04;76.28
61359;BME280;47228;46.762;23.598;2023-01-29T10:58:58;97677.80;;;0.01;74.58
61359;BME280;47228;46.762;23.598;2023-01-29T11:01:28;97676.94;;;-0.07;74.44
61359;BME280;47228;46.762;23.598;2023-01-29T11:04:09;97674.86;;;-0.16;74.50
61359;BME280;47228;46.762;23.598;2023-01-29T11:06:38;97683.29;;;-0.25;74.63
61359;BME280;47228;46.762;23.598;2023-01-29T11:11:45;97676.23;;;-0.31;75.09
61359;BME280;47228;46.762;23.598;2023-01-29T11:14:20;97675.71;;;-0.35;75.19
61359;BME280;47228;46.762;23.598;2023-01-29T11:16:49;97664.74;;;-0.35;75.91
61359;BME280;47228;46.762;23.598;2023-01-29T11:19:34;97662.55;;;-0.31;76.28
61359;BME280;47228;46.762;23.598;2023-01-29T11:22:03;97661.31;;;-0.27;75.86
61359;BME280;47228;46.762;23.598;2023-01-29T11:24:31;97662.28;;;-0.33;74.91
61359;BME280;47228;46.762;23.598;2023-01-29T11:26:59;97660.95;;;-0.40;75.38
61359;BME280;47228;46.762;23.598;2023-01-29T11:29:37;97656.48;;;-0.38;75.69
61359;BME280;47228;46.762;23.598;2023-01-29T11:37:44;97651.14;;;-0.35;74.89
61359;BME280;47228;46.762;23.598;2023-01-29T11:40:36;97649.30;;;-0.40;75.13
61359;BME280;47228;46.762;23.598;2023-01-29T11:45:52;97648.25;;;-0.44;75.33
61359;BME280;47228;46.762;23.598;2023-01-29T11:48:26;97644.49;;;-0.43;75.43
61359;BME280;47228;46.762;23.598;2023-01-29T11:50:59;97635.20;;;-0.44;75.07
61359;BME280;47228;46.762;23.598;2023-01-29T11:53:43;97635.16;;;-0.48;74.24
61359;BME280;47228;46.762;23.598;2023-01-29T11:58:49;97630.95;;;-0.58;73.70
61359;BME280;47228;46.762;23.598;2023-01-29T12:01:29;97631.33;;;-0.58;74.72
61359;BME280;47228;46.762;23.598;2023-01-29T12:03:58;97625.89;;;-0.56;74.23
61359;BME280;47228;46.762;23.598;2023-01-29T12:06:35;97626.47;;;-0.55;74.09
61359;BME280;47228;46.762;23.598;2023-01-29T12:09:10;97627.14;;;-0.54;73.87
61359;BME280;47228;46.762;23.598;2023-01-29T12:11:43;97622.15;;;-0.53;73.97
61359;BME280;47228;46.762;23.598;2023-01-29T12:14:30;97625.64;;;-0.53;73.79
61359;BME280;47228;46.762;23.598;2023-01-29T12:17:06;97626.60;;;-0.52;74.16
61359;BME280;47228;46.762;23.598;2023-01-29T12:19:50;97627.77;;;-0.53;73.84
61359;BME280;47228;46.762;23.598;2023-01-29T12:22:22;97626.77;;;-0.52;74.06
61359;BME280;47228;46.762;23.598;2023-01-29T12:24:57;97623.08;;;-0.49;74.02
61359;BME280;47228;46.762;23.598;2023-01-29T12:27:38;97623.98;;;-0.47;73.83
61359;BME280;47228;46.762;23.598;2023-01-29T12:30:16;97626.70;;;-0.49;73.64
61359;BME280;47228;46.762;23.598;2023-01-29T12:33:11;97627.13;;;-0.52;73.45
61359;BME280;47228;46.762;23.598;2023-01-29T12:35:45;97627.52;;;-0.59;73.15
61359;BME280;47228;46.762;23.598;2023-01-29T12:38:20;97625.58;;;-0.62;73.95
61359;BME280;47228;46.762;23.598;2023-01-29T12:40:50;97623.70;;;-0.59;74.71
61359;BME280;47228;46.762;23.598;2023-01-29T12:43:35;97625.34;;;-0.56;74.72
61359;BME280;47228;46.762;23.598;2023-01-29T12:46:08;97628.17;;;-0.54;74.49
61359;BME280;47228;46.762;23.598;2023-01-29T12:48:41;97624.55;;;-0.54;74.46
61359;BME280;47228;46.762;23.598;2023-01-29T12:51:17;97627.93;;;-0.57;73.82
61359;BME280;47228;46.762;23.598;2023-01-29T12:53:56;97628.95;;;-0.64;73.99
61359;BME280;47228;46.762;23.598;2023-01-29T12:56:38;97630.46;;;-0.68;74.28
61359;BME280;47228;46.762;23.598;2023-01-29T12:59:25;97633.48;;;-0.70;73.99
61359;BME280;47228;46.762;23.598;2023-01-29T13:02:00;97629.46;;;-0.74;73.75
61359;BME280;47228;46.762;23.598;2023-01-29T13:04:44;97630.83;;;-0.76;73.70
61359;BME280;47228;46.762;23.598;2023-01-29T13:07:22;97630.83;;;-0.76;74.04
61359;BME280;47228;46.762;23.598;2023-01-29T13:10:02;97632.73;;;-0.76;74.37
61359;BME280;47228;46.762;23.598;2023-01-29T13:12:32;97630.25;;;-0.75;74.26
61359;BME280;47228;46.762;23.598;2023-01-29T13:15:15;97635.96;;;-0.77;74.11
61359;BME280;47228;46.762;23.598;2023-01-29T13:20:59;97632.77;;;-0.81;74.41
61359;BME280;47228;46.762;23.598;2023-01-29T13:23:33;97630.94;;;-0.84;74.13
61359;BME280;47228;46.762;23.598;2023-01-29T13:26:04;97629.97;;;-0.87;74.52
61359;BME280;47228;46.762;23.598;2023-01-29T13:28:32;97633.58;;;-0.89;74.80
61359;BME280;47228;46.762;23.598;2023-01-29T13:33:39;97636.04;;;-0.89;75.25
61359;BME280;47228;46.762;23.598;2023-01-29T13:36:17;97637.73;;;-0.91;74.86
61359;BME280;47228;46.762;23.598;2023-01-29T13:39:05;97639.88;;;-0.96;75.00
61359;BME280;47228;46.762;23.598;2023-01-29T13:41:39;97643.20;;;-0.95;75.30
61359;BME280;47228;46.762;23.598;2023-01-29T13:44:48;97643.32;;;-0.94;75.22
61359;BME280;47228;46.762;23.598;2023-01-29T13:47:27;97643.08;;;-0.93;75.29
61359;BME280;47228;46.762;23.598;2023-01-29T13:50:06;97641.00;;;-0.95;75.33
61359;BME280;47228;46.762;23.598;2023-01-29T13:52:41;97644.09;;;-0.95;75.64
61359;BME280;47228;46.762;23.598;2023-01-29T14:13:48;97634.80;;;-0.89;74.31
61359;BME280;47228;46.762;23.598;2023-01-29T14:18:58;97638.65;;;-0.94;73.34
61359;BME280;47228;46.762;23.598;2023-01-29T14:21:32;97635.09;;;-0.97;73.85
61359;BME280;47228;46.762;23.598;2023-01-29T14:24:16;97634.58;;;-0.97;73.87
61359;BME280;47228;46.762;23.598;2023-01-29T14:26:47;97642.55;;;-0.99;72.96
61359;BME280;47228;46.762;23.598;2023-01-29T14:29:19;97643.61;;;-1.03;72.64
61359;BME280;47228;46.762;23.598;2023-01-29T14:34:43;97646.67;;;-1.12;72.44
61359;BME280;47228;46.762;23.598;2023-01-29T14:39:55;97652.58;;;-1.19;72.50
61359;BME280;47228;46.762;23.598;2023-01-29T14:42:28;97654.67;;;-1.19;72.52
61359;BME280;47228;46.762;23.598;2023-01-29T14:45:07;97653.80;;;-1.19;72.53
61359;BME280;47228;46.762;23.598;2023-01-29T15:01:22;97656.36;;;-1.29;72.84
61359;BME280;47228;46.762;23.598;2023-01-29T15:04:17;97653.52;;;-1.33;72.76
61359;BME280;47228;46.762;23.598;2023-01-29T15:06:56;97657.66;;;-1.37;72.87
61359;BME280;47228;46.762;23.598;2023-01-29T15:12:59;97663.02;;;-1.41;73.48
61359;BME280;47228;46.762;23.598;2023-01-29T15:15:50;97666.69;;;-1.41;73.55
61359;BME280;47228;46.762;23.598;2023-01-29T15:18:29;97668.06;;;-1.41;73.73
61359;BME280;47228;46.762;23.598;2023-01-29T15:21:08;97671.14;;;-1.38;73.94
61359;BME280;47228;46.762;23.598;2023-01-29T15:23:38;97665.20;;;-1.40;73.46
61359;BME280;47228;46.762;23.598;2023-01-29T15:26:17;97670.52;;;-1.42;73.66
61359;BME280;47228;46.762;23.598;2023-01-29T15:28:53;97671.80;;;-1.40;74.10
61359;BME280;47228;46.762;23.598;2023-01-29T15:31:31;97670.85;;;-1.37;74.15
61359;BME280;47228;46.762;23.598;2023-01-29T15:34:03;97668.44;;;-1.35;74.34
61359;BME280;47228;46.762;23.598;2023-01-29T15:36:35;97664.41;;;-1.32;74.49